Minot, ND (58701)

1:04 PM CST on December 25, 2014 (GMT -0600)
Why Not Minot | Change Station
CLOSE
Current Station
Personal Weather Station
Location: Minot, ND
Elevation: 1759 ft
Nearby Weather Stations

Elev 1759 ft 48.22 °N, 101.30 °W | Updated 6 minutes ago

Overcast
Overcast
27.3 °F
Feels Like 27 °F
N
2.2
Wind Variable Wind from NNW

Today
High -- | Low -- °F
--% Chance of Precip.
Yesterday
High -- | Low -- °F
Precip. -- in
8:34 AM 4:55 PM
Waxing Crescent, 18% visible
Pressure 29.87 in
Visibility 9.0 miles
Clouds Overcast 1700 ft
Windchill 27 °F
Dew Point 25 °F
Humidity 90%
Rainfall 0.00 in
Snow Depth Not available.
UV 0 out of 12
Pollen .10 out of 12
Air Quality Not available.
Flu Activity Not available.
METAR KMOT 251854Z 30014KT 9SM OVC017 M03/M06 A2980 RMK AO2 SNB05E14 SLP114 P0000 T10281061

More Conditions Fewer Conditions

Pressure 29.87 in
Visibility 9.0 miles
Clouds Overcast 1700 ft
Windchill 27 °F
Dew Point 25 °F
Humidity 90%
Rainfall 0.00 in
Snow Depth Not available.
UV 0 out of 12
Pollen .10 out of 12
Air Quality Not available.
Flu Activity Not available.
METAR KMOT 251854Z 30014KT 9SM OVC017 M03/M06 A2980 RMK AO2 SNB05E14 SLP114 P0000 T10281061

More Conditions Fewer Conditions

10-Day Weather Forecast

Almanac

Astronomy

Dec. 25, 2014 Rise Set
Actual Time
Civil Twilight
Nautical Twilight
Astronomical Twilight
Moon
Length of Visible Light
Length of Day
Tomorrow will be .
, % of the Moon is Illuminated

Today's Extremes

State Highs State Lows

Community

WunderPhotos

Upload Photos

1,780,364 photos uploaded!

WunderBlogs® & News

Nearby

Air Quality

  Air Quality AQ Index Pollutant
Not available.

Snow Depth

Station Depth Elevation

Earthquake Activity

City Distance Mag. Time & Date
Minimum magnitude displayed is 2.5.

Coastal Water Temperatures

Place Temperature

Nearby Weather Stations